sensor_id;sensor_type;location;lat;lon;timestamp;pressure;altitude;pressure_sealevel;temperature;humidity
20930;BME280;21895;47.072;15.132;2023-07-13T00:01:54;96527.00;;;21.52;66.69
20930;BME280;21895;47.072;15.132;2023-07-13T00:04:23;96517.00;;;21.59;66.85
20930;BME280;21895;47.072;15.132;2023-07-13T00:06:52;96517.00;;;21.52;65.55
20930;BME280;21895;47.072;15.132;2023-07-13T00:09:20;96521.00;;;21.69;66.25
20930;BME280;21895;47.072;15.132;2023-07-13T00:11:55;96520.00;;;21.70;65.89
20930;BME280;21895;47.072;15.132;2023-07-13T00:14:24;96504.00;;;21.72;65.67
20930;BME280;21895;47.072;15.132;2023-07-13T00:16:51;96485.00;;;21.86;65.92
20930;BME280;21895;47.072;15.132;2023-07-13T00:19:18;96485.00;;;21.79;65.36
20930;BME280;21895;47.072;15.132;2023-07-13T00:21:44;96479.00;;;21.61;65.75
20930;BME280;21895;47.072;15.132;2023-07-13T00:24:18;96481.00;;;21.70;66.53
20930;BME280;21895;47.072;15.132;2023-07-13T00:26:49;96490.00;;;21.75;66.96
20930;BME280;21895;47.072;15.132;2023-07-13T00:29:16;96480.00;;;21.69;68.20
20930;BME280;21895;47.072;15.132;2023-07-13T00:31:42;96476.00;;;21.87;66.92
20930;BME280;21895;47.072;15.132;2023-07-13T00:34:10;96465.00;;;21.61;67.91
20930;BME280;21895;47.072;15.132;2023-07-13T00:36:36;96454.00;;;21.52;67.99
20930;BME280;21895;47.072;15.132;2023-07-13T00:39:03;96448.00;;;21.53;67.93
20930;BME280;21895;47.072;15.132;2023-07-13T00:41:31;96437.00;;;21.40;68.85
20930;BME280;21895;47.072;15.132;2023-07-13T00:43:58;96440.00;;;21.57;67.92
20930;BME280;21895;47.072;15.132;2023-07-13T00:46:29;96461.00;;;21.51;67.56
20930;BME280;21895;47.072;15.132;2023-07-13T00:49:01;96468.00;;;21.20;68.83
20930;BME280;21895;47.072;15.132;2023-07-13T00:51:40;96488.00;;;21.07;70.15
20930;BME280;21895;47.072;15.132;2023-07-13T00:54:14;96475.00;;;21.18;69.23
20930;BME280;21895;47.072;15.132;2023-07-13T00:56:44;96450.00;;;21.46;67.98
20930;BME280;21895;47.072;15.132;2023-07-13T00:59:14;96422.00;;;21.72;64.13
20930;BME280;21895;47.072;15.132;2023-07-13T01:01:42;96417.00;;;21.44;64.45
20930;BME280;21895;47.072;15.132;2023-07-13T01:04:10;96442.00;;;21.43;64.47
20930;BME280;21895;47.072;15.132;2023-07-13T01:06:39;96503.00;;;21.26;67.00
20930;BME280;21895;47.072;15.132;2023-07-13T01:09:10;96540.00;;;21.19;68.22
20930;BME280;21895;47.072;15.132;2023-07-13T01:11:38;96541.00;;;21.23;68.93
20930;BME280;21895;47.072;15.132;2023-07-13T01:14:05;96521.00;;;21.19;68.98
20930;BME280;21895;47.072;15.132;2023-07-13T01:16:34;96511.00;;;21.64;66.75
20930;BME280;21895;47.072;15.132;2023-07-13T01:19:12;96525.00;;;21.44;67.58
20930;BME280;21895;47.072;15.132;2023-07-13T01:21:41;96573.00;;;21.31;69.45
20930;BME280;21895;47.072;15.132;2023-07-13T01:24:09;96600.00;;;21.52;69.63
20930;BME280;21895;47.072;15.132;2023-07-13T01:26:36;96618.00;;;21.41;71.26
20930;BME280;21895;47.072;15.132;2023-07-13T01:29:02;96631.00;;;21.49;72.76
20930;BME280;21895;47.072;15.132;2023-07-13T01:31:29;96635.00;;;21.57;71.27
20930;BME280;21895;47.072;15.132;2023-07-13T01:33:55;96640.00;;;21.34;70.48
20930;BME280;21895;47.072;15.132;2023-07-13T01:36:23;96667.00;;;20.99;73.29
20930;BME280;21895;47.072;15.132;2023-07-13T01:38:50;96693.00;;;20.80;74.49
20930;BME280;21895;47.072;15.132;2023-07-13T01:41:17;96710.00;;;20.82;75.30
20930;BME280;21895;47.072;15.132;2023-07-13T01:43:46;96709.00;;;20.80;74.07
20930;BME280;21895;47.072;15.132;2023-07-13T01:46:13;96745.00;;;20.75;73.18
20930;BME280;21895;47.072;15.132;2023-07-13T01:48:42;96763.00;;;20.97;73.70
20930;BME280;21895;47.072;15.132;2023-07-13T01:51:09;96790.00;;;20.93;73.09
20930;BME280;21895;47.072;15.132;2023-07-13T01:53:35;96799.00;;;21.08;73.28
20930;BME280;21895;47.072;15.132;2023-07-13T01:56:02;96823.00;;;21.21;74.24
20930;BME280;21895;47.072;15.132;2023-07-13T01:58:28;96860.00;;;21.46;74.68
20930;BME280;21895;47.072;15.132;2023-07-13T02:00:55;96884.00;;;21.51;73.87
20930;BME280;21895;47.072;15.132;2023-07-13T02:03:22;96889.00;;;21.90;71.62
20930;BME280;21895;47.072;15.132;2023-07-13T02:05:48;96863.00;;;21.86;70.42
20930;BME280;21895;47.072;15.132;2023-07-13T02:08:15;96849.00;;;21.70;72.86
20930;BME280;21895;47.072;15.132;2023-07-13T02:10:41;96840.00;;;21.75;71.80
20930;BME280;21895;47.072;15.132;2023-07-13T02:13:08;96849.00;;;21.84;69.67
20930;BME280;21895;47.072;15.132;2023-07-13T02:15:39;96839.00;;;21.67;70.75
20930;BME280;21895;47.072;15.132;2023-07-13T02:18:07;96816.00;;;21.51;74.94
20930;BME280;21895;47.072;15.132;2023-07-13T02:20:33;96803.00;;;21.41;76.35
20930;BME280;21895;47.072;15.132;2023-07-13T02:23:00;96784.00;;;21.27;77.14
20930;BME280;21895;47.072;15.132;2023-07-13T02:25:27;96747.00;;;21.30;75.12
20930;BME280;21895;47.072;15.132;2023-07-13T02:27:53;96735.00;;;21.38;74.03
20930;BME280;21895;47.072;15.132;2023-07-13T02:30:20;96708.00;;;21.50;74.67
20930;BME280;21895;47.072;15.132;2023-07-13T02:32:46;96662.00;;;21.38;72.67
20930;BME280;21895;47.072;15.132;2023-07-13T02:35:13;96619.00;;;21.30;75.05
20930;BME280;21895;47.072;15.132;2023-07-13T02:37:40;96568.00;;;20.99;77.67
20930;BME280;21895;47.072;15.132;2023-07-13T02:40:08;96578.00;;;20.80;78.50
20930;BME280;21895;47.072;15.132;2023-07-13T02:42:35;96600.00;;;20.85;79.17
20930;BME280;21895;47.072;15.132;2023-07-13T02:45:07;96603.00;;;20.94;80.37
20930;BME280;21895;47.072;15.132;2023-07-13T02:47:36;96608.00;;;20.80;80.97
20930;BME280;21895;47.072;15.132;2023-07-13T02:50:03;96644.00;;;20.65;82.34
20930;BME280;21895;47.072;15.132;2023-07-13T02:52:29;96656.00;;;20.69;81.82
20930;BME280;21895;47.072;15.132;2023-07-13T02:54:56;96699.00;;;20.91;82.22
20930;BME280;21895;47.072;15.132;2023-07-13T02:57:22;96725.00;;;20.95;81.63
20930;BME280;21895;47.072;15.132;2023-07-13T02:59:49;96748.00;;;20.99;79.34
20930;BME280;21895;47.072;15.132;2023-07-13T03:02:16;96740.00;;;21.05;78.71
20930;BME280;21895;47.072;15.132;2023-07-13T03:04:42;96756.00;;;21.08;78.25
20930;BME280;21895;47.072;15.132;2023-07-13T03:07:09;96784.00;;;20.98;78.73
20930;BME280;21895;47.072;15.132;2023-07-13T03:09:36;96789.00;;;21.00;80.00
20930;BME280;21895;47.072;15.132;2023-07-13T03:12:03;96788.00;;;21.08;80.23
20930;BME280;21895;47.072;15.132;2023-07-13T03:14:30;96767.00;;;21.18;79.10
20930;BME280;21895;47.072;15.132;2023-07-13T03:16:56;96762.00;;;20.93;79.64
20930;BME280;21895;47.072;15.132;2023-07-13T03:19:23;96763.00;;;20.75;80.83
20930;BME280;21895;47.072;15.132;2023-07-13T03:21:49;96723.00;;;20.89;80.07
20930;BME280;21895;47.072;15.132;2023-07-13T03:24:16;96690.00;;;20.77;81.46
20930;BME280;21895;47.072;15.132;2023-07-13T03:26:43;96653.00;;;20.77;81.04
20930;BME280;21895;47.072;15.132;2023-07-13T03:29:09;96599.00;;;20.91;79.33
20930;BME280;21895;47.072;15.132;2023-07-13T03:31:37;96552.00;;;20.61;80.49
20930;BME280;21895;47.072;15.132;2023-07-13T03:34:05;96495.00;;;20.54;81.82
20930;BME280;21895;47.072;15.132;2023-07-13T03:36:32;96455.00;;;20.61;81.08
20930;BME280;21895;47.072;15.132;2023-07-13T03:39:03;96446.00;;;20.61;80.29
20930;BME280;21895;47.072;15.132;2023-07-13T03:41:30;96448.00;;;20.52;80.27
20930;BME280;21895;47.072;15.132;2023-07-13T03:43:57;96443.00;;;20.52;79.38
20930;BME280;21895;47.072;15.132;2023-07-13T03:46:24;96440.00;;;20.71;78.96
20930;BME280;21895;47.072;15.132;2023-07-13T03:48:51;96430.00;;;20.54;79.52
20930;BME280;21895;47.072;15.132;2023-07-13T03:51:19;96449.00;;;20.30;80.97
20930;BME280;21895;47.072;15.132;2023-07-13T03:53:47;96486.00;;;20.40;80.77
20930;BME280;21895;47.072;15.132;2023-07-13T03:56:16;96517.00;;;20.44;81.32
20930;BME280;21895;47.072;15.132;2023-07-13T03:58:45;96550.00;;;20.57;81.12
20930;BME280;21895;47.072;15.132;2023-07-13T04:01:14;96569.00;;;20.72;81.56
20930;BME280;21895;47.072;15.132;2023-07-13T04:03:41;96593.00;;;20.72;81.94
20930;BME280;21895;47.072;15.132;2023-07-13T04:06:19;96590.00;;;20.73;81.22
20930;BME280;21895;47.072;15.132;2023-07-13T04:08:53;96603.00;;;20.90;80.85
20930;BME280;21895;47.072;15.132;2023-07-13T04:11:26;96614.00;;;21.14;78.97
20930;BME280;21895;47.072;15.132;2023-07-13T04:13:53;96613.00;;;21.09;78.18
20930;BME280;21895;47.072;15.132;2023-07-13T04:16:21;96609.00;;;20.66;80.72
20930;BME280;21895;47.072;15.132;2023-07-13T04:18:49;96621.00;;;20.81;81.27
20930;BME280;21895;47.072;15.132;2023-07-13T04:21:16;96627.00;;;20.92;81.07
20930;BME280;21895;47.072;15.132;2023-07-13T04:23:43;96628.00;;;20.87;80.46
20930;BME280;21895;47.072;15.132;2023-07-13T04:26:10;96628.00;;;20.85;81.58
20930;BME280;21895;47.072;15.132;2023-07-13T04:28:37;96629.00;;;21.10;81.17
20930;BME280;21895;47.072;15.132;2023-07-13T04:31:04;96634.00;;;21.43;78.01
20930;BME280;21895;47.072;15.132;2023-07-13T04:33:31;96637.00;;;21.36;78.08
20930;BME280;21895;47.072;15.132;2023-07-13T04:35:58;96638.00;;;21.24;78.75
20930;BME280;21895;47.072;15.132;2023-07-13T04:38:28;96647.00;;;21.25;79.08
20930;BME280;21895;47.072;15.132;2023-07-13T04:40:58;96648.00;;;21.36;78.45
20930;BME280;21895;47.072;15.132;2023-07-13T04:43:25;96638.00;;;21.36;77.79
20930;BME280;21895;47.072;15.132;2023-07-13T04:45:53;96638.00;;;21.57;78.00
20930;BME280;21895;47.072;15.132;2023-07-13T04:48:20;96631.00;;;21.54;78.67
20930;BME280;21895;47.072;15.132;2023-07-13T04:50:53;96635.00;;;21.83;77.30
20930;BME280;21895;47.072;15.132;2023-07-13T04:53:20;96641.00;;;22.16;75.34
20930;BME280;21895;47.072;15.132;2023-07-13T04:55:47;96645.00;;;22.20;74.16
20930;BME280;21895;47.072;15.132;2023-07-13T04:58:13;96636.00;;;21.92;74.25
20930;BME280;21895;47.072;15.132;2023-07-13T05:00:40;96629.00;;;21.80;74.37
20930;BME280;21895;47.072;15.132;2023-07-13T05:03:06;96632.00;;;21.67;75.03
20930;BME280;21895;47.072;15.132;2023-07-13T05:05:33;96635.00;;;21.57;75.29
20930;BME280;21895;47.072;15.132;2023-07-13T05:08:00;96629.00;;;21.57;74.74
20930;BME280;21895;47.072;15.132;2023-07-13T05:10:26;96625.00;;;21.85;72.92
20930;BME280;21895;47.072;15.132;2023-07-13T05:12:53;96629.00;;;21.79;73.01
20930;BME280;21895;47.072;15.132;2023-07-13T05:15:22;96631.00;;;21.80;73.54
20930;BME280;21895;47.072;15.132;2023-07-13T05:17:50;96618.00;;;21.72;73.80
20930;BME280;21895;47.072;15.132;2023-07-13T05:20:18;96611.00;;;22.23;70.79
20930;BME280;21895;47.072;15.132;2023-07-13T05:22:45;96600.00;;;22.46;71.24
20930;BME280;21895;47.072;15.132;2023-07-13T05:25:14;96595.00;;;22.73;70.51
20930;BME280;21895;47.072;15.132;2023-07-13T05:27:41;96602.00;;;23.08;70.32
20930;BME280;21895;47.072;15.132;2023-07-13T05:30:08;96602.00;;;23.43;70.46
20930;BME280;21895;47.072;15.132;2023-07-13T05:32:37;96601.00;;;23.86;68.52
20930;BME280;21895;47.072;15.132;2023-07-13T05:35:04;96601.00;;;24.12;66.21
20930;BME280;21895;47.072;15.132;2023-07-13T05:37:31;96591.00;;;24.55;64.45
20930;BME280;21895;47.072;15.132;2023-07-13T05:39:57;96599.00;;;24.85;61.99
20930;BME280;21895;47.072;15.132;2023-07-13T05:42:24;96595.00;;;24.96;61.88
20930;BME280;21895;47.072;15.132;2023-07-13T05:44:50;96593.00;;;24.92;62.38
20930;BME280;21895;47.072;15.132;2023-07-13T05:47:17;96603.00;;;24.98;60.70
20930;BME280;21895;47.072;15.132;2023-07-13T05:49:43;96602.00;;;25.29;61.39
20930;BME280;21895;47.072;15.132;2023-07-13T05:52:10;96608.00;;;25.20;61.23
20930;BME280;21895;47.072;15.132;2023-07-13T05:54:37;96605.00;;;25.36;62.32
20930;BME280;21895;47.072;15.132;2023-07-13T05:57:04;96613.00;;;25.65;63.28
20930;BME280;21895;47.072;15.132;2023-07-13T05:59:30;96607.00;;;25.70;62.95
20930;BME280;21895;47.072;15.132;2023-07-13T06:01:57;96619.00;;;26.25;60.94
20930;BME280;21895;47.072;15.132;2023-07-13T06:04:24;96619.00;;;26.00;59.99
20930;BME280;21895;47.072;15.132;2023-07-13T06:06:50;96620.00;;;26.03;60.52
20930;BME280;21895;47.072;15.132;2023-07-13T06:09:17;96616.00;;;26.19;60.06
20930;BME280;21895;47.072;15.132;2023-07-13T06:11:43;96611.00;;;26.93;57.26
20930;BME280;21895;47.072;15.132;2023-07-13T06:14:11;96610.00;;;26.82;57.87
20930;BME280;21895;47.072;15.132;2023-07-13T06:16:37;96612.00;;;26.74;59.02
20930;BME280;21895;47.072;15.132;2023-07-13T06:19:04;96615.00;;;26.74;58.40
20930;BME280;21895;47.072;15.132;2023-07-13T06:21:31;96639.00;;;26.88;58.56
20930;BME280;21895;47.072;15.132;2023-07-13T06:23:57;96640.00;;;26.96;57.33
20930;BME280;21895;47.072;15.132;2023-07-13T06:26:24;96647.00;;;27.14;56.18
20930;BME280;21895;47.072;15.132;2023-07-13T06:28:51;96651.00;;;27.30;54.56
20930;BME280;21895;47.072;15.132;2023-07-13T06:31:17;96659.00;;;27.32;55.43
20930;BME280;21895;47.072;15.132;2023-07-13T06:33:44;96653.00;;;27.58;56.16
20930;BME280;21895;47.072;15.132;2023-07-13T06:36:11;96656.00;;;27.48;54.20
20930;BME280;21895;47.072;15.132;2023-07-13T06:38:38;96649.00;;;27.54;54.32
20930;BME280;21895;47.072;15.132;2023-07-13T06:41:06;96655.00;;;27.57;54.11
20930;BME280;21895;47.072;15.132;2023-07-13T06:43:34;96652.00;;;27.92;52.17
20930;BME280;21895;47.072;15.132;2023-07-13T06:46:00;96652.00;;;27.78;51.78
20930;BME280;21895;47.072;15.132;2023-07-13T06:48:27;96647.00;;;27.80;52.37
20930;BME280;21895;47.072;15.132;2023-07-13T06:50:54;96655.00;;;27.99;52.81
20930;BME280;21895;47.072;15.132;2023-07-13T06:53:21;96655.00;;;27.93;53.07
20930;BME280;21895;47.072;15.132;2023-07-13T06:55:49;96659.00;;;27.85;55.44
20930;BME280;21895;47.072;15.132;2023-07-13T06:58:18;96671.00;;;28.27;53.89
20930;BME280;21895;47.072;15.132;2023-07-13T07:00:45;96668.00;;;28.25;51.98
20930;BME280;21895;47.072;15.132;2023-07-13T07:03:12;96675.00;;;28.30;53.96
20930;BME280;21895;47.072;15.132;2023-07-13T07:05:38;96668.00;;;28.48;53.59
20930;BME280;21895;47.072;15.132;2023-07-13T07:08:05;96665.00;;;28.81;53.31
20930;BME280;21895;47.072;15.132;2023-07-13T07:10:31;96673.00;;;28.83;55.23
20930;BME280;21895;47.072;15.132;2023-07-13T07:12:58;96682.00;;;29.13;50.41
20930;BME280;21895;47.072;15.132;2023-07-13T07:15:26;96671.00;;;29.19;48.99
20930;BME280;21895;47.072;15.132;2023-07-13T07:17:53;96666.00;;;29.15;48.73
20930;BME280;21895;47.072;15.132;2023-07-13T07:20:20;96676.00;;;29.04;49.05
20930;BME280;21895;47.072;15.132;2023-07-13T07:22:47;96668.00;;;28.78;50.57
20930;BME280;21895;47.072;15.132;2023-07-13T07:25:14;96670.00;;;28.93;51.52
20930;BME280;21895;47.072;15.132;2023-07-13T07:27:40;96654.00;;;29.25;51.51
20930;BME280;21895;47.072;15.132;2023-07-13T07:30:11;96657.00;;;29.41;50.46
20930;BME280;21895;47.072;15.132;2023-07-13T07:32:40;96653.00;;;29.44;49.08
20930;BME280;21895;47.072;15.132;2023-07-13T07:35:10;96642.00;;;29.30;48.51
20930;BME280;21895;47.072;15.132;2023-07-13T07:37:37;96635.00;;;29.32;50.14
20930;BME280;21895;47.072;15.132;2023-07-13T07:40:08;96633.00;;;29.64;46.58
20930;BME280;21895;47.072;15.132;2023-07-13T07:42:37;96637.00;;;29.32;47.19
20930;BME280;21895;47.072;15.132;2023-07-13T07:45:05;96628.00;;;29.32;49.25
20930;BME280;21895;47.072;15.132;2023-07-13T07:47:31;96626.00;;;29.64;43.78
20930;BME280;21895;47.072;15.132;2023-07-13T07:49:58;96628.00;;;29.51;42.84
20930;BME280;21895;47.072;15.132;2023-07-13T07:52:24;96628.00;;;29.61;46.01
20930;BME280;21895;47.072;15.132;2023-07-13T07:54:51;96632.00;;;29.74;43.31
20930;BME280;21895;47.072;15.132;2023-07-13T07:57:20;96627.00;;;29.92;39.27
20930;BME280;21895;47.072;15.132;2023-07-13T07:59:50;96635.00;;;29.83;41.76
20930;BME280;21895;47.072;15.132;2023-07-13T08:02:19;96625.00;;;30.07;39.57
20930;BME280;21895;47.072;15.132;2023-07-13T08:04:49;96627.00;;;30.28;42.66
20930;BME280;21895;47.072;15.132;2023-07-13T08:07:19;96624.00;;;30.29;40.80
20930;BME280;21895;47.072;15.132;2023-07-13T08:09:46;96636.00;;;30.47;39.56
20930;BME280;21895;47.072;15.132;2023-07-13T08:12:13;96637.00;;;30.55;41.04
20930;BME280;21895;47.072;15.132;2023-07-13T08:14:43;96644.00;;;30.56;38.29
20930;BME280;21895;47.072;15.132;2023-07-13T08:17:20;96638.00;;;30.66;38.08
20930;BME280;21895;47.072;15.132;2023-07-13T08:19:47;96632.00;;;30.71;40.03
20930;BME280;21895;47.072;15.132;2023-07-13T08:22:13;96625.00;;;30.90;38.95
20930;BME280;21895;47.072;15.132;2023-07-13T08:24:40;96629.00;;;31.10;36.19
20930;BME280;21895;47.072;15.132;2023-07-13T08:27:10;96624.00;;;31.16;37.61
20930;BME280;21895;47.072;15.132;2023-07-13T08:29:38;96624.00;;;31.12;37.79
20930;BME280;21895;47.072;15.132;2023-07-13T08:32:06;96629.00;;;31.15;38.90
20930;BME280;21895;47.072;15.132;2023-07-13T08:34:35;96634.00;;;31.11;37.90
20930;BME280;21895;47.072;15.132;2023-07-13T08:37:02;96633.00;;;31.04;36.19
20930;BME280;21895;47.072;15.132;2023-07-13T08:39:32;96630.00;;;31.05;35.54
20930;BME280;21895;47.072;15.132;2023-07-13T08:42:06;96623.00;;;30.88;36.88
20930;BME280;21895;47.072;15.132;2023-07-13T08:48:02;96619.00;;;30.91;35.99
20930;BME280;21895;47.072;15.132;2023-07-13T08:50:36;96622.00;;;31.05;36.19
20930;BME280;21895;47.072;15.132;2023-07-13T08:53:39;96624.00;;;31.01;35.27
20930;BME280;21895;47.072;15.132;2023-07-13T08:56:17;96607.00;;;30.80;36.69
20930;BME280;21895;47.072;15.132;2023-07-13T08:58:48;96604.00;;;30.85;39.36
20930;BME280;21895;47.072;15.132;2023-07-13T09:05:08;96602.00;;;31.01;36.21
20930;BME280;21895;47.072;15.132;2023-07-13T09:08:37;96595.00;;;31.31;35.69
20930;BME280;21895;47.072;15.132;2023-07-13T09:14:43;96598.00;;;31.27;36.05
20930;BME280;21895;47.072;15.132;2023-07-13T09:17:29;96604.00;;;31.86;37.22
20930;BME280;21895;47.072;15.132;2023-07-13T09:20:41;96611.00;;;31.71;37.98
20930;BME280;21895;47.072;15.132;2023-07-13T09:23:16;96621.00;;;31.83;37.38
20930;BME280;21895;47.072;15.132;2023-07-13T09:25:48;96629.00;;;31.93;37.47
20930;BME280;21895;47.072;15.132;2023-07-13T09:28:33;96629.00;;;31.77;39.08
20930;BME280;21895;47.072;15.132;2023-07-13T09:31:24;96625.00;;;31.92;38.42
20930;BME280;21895;47.072;15.132;2023-07-13T09:33:52;96622.00;;;31.97;36.87
20930;BME280;21895;47.072;15.132;2023-07-13T09:36:32;96624.00;;;32.05;36.85
20930;BME280;21895;47.072;15.132;2023-07-13T09:39:42;96620.00;;;32.14;36.21
20930;BME280;21895;47.072;15.132;2023-07-13T09:42:19;96618.00;;;32.16;37.27
20930;BME280;21895;47.072;15.132;2023-07-13T09:44:58;96618.00;;;32.33;36.28
20930;BME280;21895;47.072;15.132;2023-07-13T09:47:29;96627.00;;;32.52;38.66
20930;BME280;21895;47.072;15.132;2023-07-13T09:50:15;96623.00;;;32.62;38.62
20930;BME280;21895;47.072;15.132;2023-07-13T09:52:50;96636.00;;;32.55;37.33
20930;BME280;21895;47.072;15.132;2023-07-13T09:55:50;96621.00;;;32.48;38.94
20930;BME280;21895;47.072;15.132;2023-07-13T09:58:25;96629.00;;;32.65;38.96
20930;BME280;21895;47.072;15.132;2023-07-13T10:01:04;96622.00;;;32.89;39.35
20930;BME280;21895;47.072;15.132;2023-07-13T10:03:36;96628.00;;;32.93;38.64
20930;BME280;21895;47.072;15.132;2023-07-13T10:06:20;96636.00;;;32.75;39.52
20930;BME280;21895;47.072;15.132;2023-07-13T10:08:50;96630.00;;;32.43;40.47
20930;BME280;21895;47.072;15.132;2023-07-13T10:11:29;96635.00;;;32.51;39.77
20930;BME280;21895;47.072;15.132;2023-07-13T10:14:17;96639.00;;;32.79;39.46
20930;BME280;21895;47.072;15.132;2023-07-13T10:16:47;96633.00;;;32.70;38.40
20930;BME280;21895;47.072;15.132;2023-07-13T10:19:25;96624.00;;;32.50;39.25
20930;BME280;21895;47.072;15.132;2023-07-13T10:21:59;96626.00;;;32.33;40.14
20930;BME280;21895;47.072;15.132;2023-07-13T10:24:31;96622.00;;;32.36;40.47
20930;BME280;21895;47.072;15.132;2023-07-13T10:27:17;96629.00;;;32.46;41.39
20930;BME280;21895;47.072;15.132;2023-07-13T10:29:52;96620.00;;;32.65;40.67
20930;BME280;21895;47.072;15.132;2023-07-13T10:32:24;96623.00;;;32.65;41.73
20930;BME280;21895;47.072;15.132;2023-07-13T10:34:51;96631.00;;;32.77;40.93
20930;BME280;21895;47.072;15.132;2023-07-13T10:37:37;96636.00;;;32.70;40.27
20930;BME280;21895;47.072;15.132;2023-07-13T10:40:12;96641.00;;;32.82;41.67
20930;BME280;21895;47.072;15.132;2023-07-13T10:42:45;96632.00;;;32.81;40.94
20930;BME280;21895;47.072;15.132;2023-07-13T10:45:15;96633.00;;;32.59;41.20
20930;BME280;21895;47.072;15.132;2023-07-13T10:47:45;96622.00;;;32.73;39.76
20930;BME280;21895;47.072;15.132;2023-07-13T10:50:26;96624.00;;;32.85;40.55
20930;BME280;21895;47.072;15.132;2023-07-13T10:53:01;96636.00;;;32.59;42.25
20930;BME280;21895;47.072;15.132;2023-07-13T10:56:38;96625.00;;;32.65;40.83
20930;BME280;21895;47.072;15.132;2023-07-13T10:59:27;96629.00;;;32.37;40.79
20930;BME280;21895;47.072;15.132;2023-07-13T11:02:43;96627.00;;;32.27;41.31
20930;BME280;21895;47.072;15.132;2023-07-13T11:07:11;96618.00;;;32.39;40.23
20930;BME280;21895;47.072;15.132;2023-07-13T11:09:57;96613.00;;;32.23;40.64
20930;BME280;21895;47.072;15.132;2023-07-13T11:12:53;96614.00;;;32.42;40.99
20930;BME280;21895;47.072;15.132;2023-07-13T11:15:45;96605.00;;;31.99;41.92
20930;BME280;21895;47.072;15.132;2023-07-13T11:18:23;96616.00;;;31.93;42.78
20930;BME280;21895;47.072;15.132;2023-07-13T11:21:12;96609.00;;;31.71;42.54
20930;BME280;21895;47.072;15.132;2023-07-13T11:23:43;96612.00;;;31.71;42.67
20930;BME280;21895;47.072;15.132;2023-07-13T11:26:52;96595.00;;;31.84;42.60
20930;BME280;21895;47.072;15.132;2023-07-13T11:29:42;96589.00;;;31.79;43.18
20930;BME280;21895;47.072;15.132;2023-07-13T11:32:29;96586.00;;;31.48;42.84
20930;BME280;21895;47.072;15.132;2023-07-13T11:34:57;96594.00;;;31.51;42.45
20930;BME280;21895;47.072;15.132;2023-07-13T11:37:24;96592.00;;;31.28;42.76
20930;BME280;21895;47.072;15.132;2023-07-13T11:39:52;96593.00;;;31.25;42.35
20930;BME280;21895;47.072;15.132;2023-07-13T11:42:21;96596.00;;;31.22;42.36
20930;BME280;21895;47.072;15.132;2023-07-13T11:44:50;96591.00;;;31.19;42.63
20930;BME280;21895;47.072;15.132;2023-07-13T11:47:40;96586.00;;;31.32;42.88
20930;BME280;21895;47.072;15.132;2023-07-13T11:50:23;96595.00;;;31.51;41.28
20930;BME280;21895;47.072;15.132;2023-07-13T11:52:52;96590.00;;;31.48;41.47
20930;BME280;21895;47.072;15.132;2023-07-13T11:55:22;96593.00;;;31.29;41.46
20930;BME280;21895;47.072;15.132;2023-07-13T11:57:59;96593.00;;;31.08;43.92
20930;BME280;21895;47.072;15.132;2023-07-13T12:00:31;96595.00;;;30.88;42.97
20930;BME280;21895;47.072;15.132;2023-07-13T12:03:03;96590.00;;;30.71;42.90
20930;BME280;21895;47.072;15.132;2023-07-13T12:05:31;96582.00;;;30.46;45.29
20930;BME280;21895;47.072;15.132;2023-07-13T12:07:58;96592.00;;;30.05;46.80
20930;BME280;21895;47.072;15.132;2023-07-13T12:10:28;96596.00;;;29.81;48.65
20930;BME280;21895;47.072;15.132;2023-07-13T12:13:01;96578.00;;;29.38;50.59
20930;BME280;21895;47.072;15.132;2023-07-13T12:16:02;96562.00;;;29.17;48.87
20930;BME280;21895;47.072;15.132;2023-07-13T12:18:31;96552.00;;;28.91;51.60
20930;BME280;21895;47.072;15.132;2023-07-13T12:21:00;96570.00;;;28.85;53.70
20930;BME280;21895;47.072;15.132;2023-07-13T12:23:35;96564.00;;;29.06;53.91
20930;BME280;21895;47.072;15.132;2023-07-13T12:26:04;96553.00;;;29.11;52.81
20930;BME280;21895;47.072;15.132;2023-07-13T12:28:37;96545.00;;;29.13;53.91
20930;BME280;21895;47.072;15.132;2023-07-13T12:31:41;96552.00;;;29.27;53.64
20930;BME280;21895;47.072;15.132;2023-07-13T12:34:14;96542.00;;;29.31;54.63
20930;BME280;21895;47.072;15.132;2023-07-13T12:36:58;96552.00;;;29.20;56.97
20930;BME280;21895;47.072;15.132;2023-07-13T12:39:35;96561.00;;;29.06;57.55
20930;BME280;21895;47.072;15.132;2023-07-13T12:43:54;96562.00;;;29.32;56.62
20930;BME280;21895;47.072;15.132;2023-07-13T12:46:24;96571.00;;;29.35;53.86
20930;BME280;21895;47.072;15.132;2023-07-13T12:48:57;96571.00;;;28.88;57.94
20930;BME280;21895;47.072;15.132;2023-07-13T12:51:44;96595.00;;;28.67;53.56
20930;BME280;21895;47.072;15.132;2023-07-13T12:54:17;96609.00;;;28.87;58.36
20930;BME280;21895;47.072;15.132;2023-07-13T12:56:49;96615.00;;;28.42;60.52
20930;BME280;21895;47.072;15.132;2023-07-13T12:59:21;96613.00;;;28.39;59.64
20930;BME280;21895;47.072;15.132;2023-07-13T13:01:49;96617.00;;;27.96;61.08
20930;BME280;21895;47.072;15.132;2023-07-13T13:04:17;96619.00;;;27.91;62.57
20930;BME280;21895;47.072;15.132;2023-07-13T13:06:49;96628.00;;;27.48;65.40
20930;BME280;21895;47.072;15.132;2023-07-13T13:09:17;96632.00;;;27.27;66.24
20930;BME280;21895;47.072;15.132;2023-07-13T13:11:46;96625.00;;;27.00;62.65
20930;BME280;21895;47.072;15.132;2023-07-13T13:14:13;96624.00;;;26.96;61.56
20930;BME280;21895;47.072;15.132;2023-07-13T13:16:48;96614.00;;;26.67;61.48
20930;BME280;21895;47.072;15.132;2023-07-13T13:19:29;96615.00;;;26.38;63.50
20930;BME280;21895;47.072;15.132;2023-07-13T13:21:56;96619.00;;;26.47;64.75
20930;BME280;21895;47.072;15.132;2023-07-13T13:24:27;96628.00;;;26.15;66.48
20930;BME280;21895;47.072;15.132;2023-07-13T13:26:54;96629.00;;;26.04;68.28